sensor_id;sensor_type;location;lat;lon;timestamp;P1;durP1;ratioP1;P2;durP2;ratioP2
10677;SDS011;5387;48.722;9.110;2023-06-22T00:00:03;9.13;;;5.75;;
10677;SDS011;5387;48.722;9.110;2023-06-22T00:02:33;7.82;;;5.97;;
10677;SDS011;5387;48.722;9.110;2023-06-22T00:05:00;6.78;;;5.82;;
10677;SDS011;5387;48.722;9.110;2023-06-22T00:07:27;8.75;;;6.38;;
10677;SDS011;5387;48.722;9.110;2023-06-22T00:09:53;6.55;;;5.68;;
10677;SDS011;5387;48.722;9.110;2023-06-22T00:12:21;6.05;;;5.38;;
10677;SDS011;5387;48.722;9.110;2023-06-22T00:14:48;9.98;;;5.38;;
10677;SDS011;5387;48.722;9.110;2023-06-22T00:17:15;8.77;;;5.95;;
10677;SDS011;5387;48.722;9.110;2023-06-22T00:19:42;7.28;;;5.97;;
10677;SDS011;5387;48.722;9.110;2023-06-22T00:22:08;11.20;;;6.63;;
10677;SDS011;5387;48.722;9.110;2023-06-22T00:24:35;6.85;;;5.38;;
10677;SDS011;5387;48.722;9.110;2023-06-22T00:27:02;8.07;;;6.15;;
10677;SDS011;5387;48.722;9.110;2023-06-22T00:29:32;10.73;;;6.00;;
10677;SDS011;5387;48.722;9.110;2023-06-22T00:31:59;9.07;;;6.40;;
10677;SDS011;5387;48.722;9.110;2023-06-22T00:34:25;6.80;;;5.80;;
10677;SDS011;5387;48.722;9.110;2023-06-22T00:36:52;10.98;;;6.05;;
10677;SDS011;5387;48.722;9.110;2023-06-22T00:39:19;10.57;;;6.47;;
10677;SDS011;5387;48.722;9.110;2023-06-22T00:41:46;7.35;;;5.95;;
10677;SDS011;5387;48.722;9.110;2023-06-22T00:44:12;8.80;;;6.15;;
10677;SDS011;5387;48.722;9.110;2023-06-22T00:46:40;7.82;;;6.18;;
10677;SDS011;5387;48.722;9.110;2023-06-22T00:49:07;8.55;;;6.00;;
10677;SDS011;5387;48.722;9.110;2023-06-22T00:51:34;8.38;;;5.93;;
10677;SDS011;5387;48.722;9.110;2023-06-22T00:54:03;9.65;;;5.90;;
10677;SDS011;5387;48.722;9.110;2023-06-22T00:56:31;9.30;;;6.53;;
10677;SDS011;5387;48.722;9.110;2023-06-22T00:59:02;9.25;;;6.65;;
10677;SDS011;5387;48.722;9.110;2023-06-22T01:01:29;7.45;;;5.93;;
10677;SDS011;5387;48.722;9.110;2023-06-22T01:03:57;8.98;;;6.95;;
10677;SDS011;5387;48.722;9.110;2023-06-22T01:06:26;8.38;;;5.93;;
10677;SDS011;5387;48.722;9.110;2023-06-22T01:09:05;8.95;;;6.45;;
10677;SDS011;5387;48.722;9.110;2023-06-22T01:11:36;9.70;;;6.72;;
10677;SDS011;5387;48.722;9.110;2023-06-22T01:14:10;7.82;;;6.40;;
10677;SDS011;5387;48.722;9.110;2023-06-22T01:16:41;8.90;;;6.78;;
10677;SDS011;5387;48.722;9.110;2023-06-22T01:19:17;8.63;;;6.00;;
10677;SDS011;5387;48.722;9.110;2023-06-22T01:21:54;8.32;;;6.20;;
10677;SDS011;5387;48.722;9.110;2023-06-22T01:24:23;10.20;;;7.03;;
10677;SDS011;5387;48.722;9.110;2023-06-22T01:26:56;8.15;;;5.57;;
10677;SDS011;5387;48.722;9.110;2023-06-22T01:29:33;8.93;;;6.70;;
10677;SDS011;5387;48.722;9.110;2023-06-22T01:32:02;9.77;;;6.20;;
10677;SDS011;5387;48.722;9.110;2023-06-22T01:34:31;8.73;;;6.05;;
10677;SDS011;5387;48.722;9.110;2023-06-22T01:36:59;8.07;;;6.28;;
10677;SDS011;5387;48.722;9.110;2023-06-22T01:39:28;10.68;;;6.47;;
10677;SDS011;5387;48.722;9.110;2023-06-22T01:41:56;7.43;;;6.53;;
10677;SDS011;5387;48.722;9.110;2023-06-22T01:44:23;8.00;;;6.38;;
10677;SDS011;5387;48.722;9.110;2023-06-22T01:46:53;9.05;;;6.72;;
10677;SDS011;5387;48.722;9.110;2023-06-22T01:49:20;8.15;;;6.43;;
10677;SDS011;5387;48.722;9.110;2023-06-22T01:51:47;9.05;;;6.07;;
10677;SDS011;5387;48.722;9.110;2023-06-22T01:54:14;8.73;;;6.85;;
10677;SDS011;5387;48.722;9.110;2023-06-22T01:56:41;10.48;;;6.63;;
10677;SDS011;5387;48.722;9.110;2023-06-22T01:59:09;6.80;;;5.57;;
10677;SDS011;5387;48.722;9.110;2023-06-22T02:01:41;12.45;;;7.03;;
10677;SDS011;5387;48.722;9.110;2023-06-22T02:04:13;16.13;;;6.70;;
10677;SDS011;5387;48.722;9.110;2023-06-22T02:06:46;7.72;;;6.35;;
10677;SDS011;5387;48.722;9.110;2023-06-22T02:09:17;8.77;;;6.80;;
10677;SDS011;5387;48.722;9.110;2023-06-22T02:11:47;10.07;;;7.18;;
10677;SDS011;5387;48.722;9.110;2023-06-22T02:14:16;11.52;;;6.90;;
10677;SDS011;5387;48.722;9.110;2023-06-22T02:16:44;10.68;;;7.20;;
10677;SDS011;5387;48.722;9.110;2023-06-22T02:19:13;8.73;;;6.95;;
10677;SDS011;5387;48.722;9.110;2023-06-22T02:21:41;8.00;;;6.32;;
10677;SDS011;5387;48.722;9.110;2023-06-22T02:24:07;9.82;;;6.45;;
10677;SDS011;5387;48.722;9.110;2023-06-22T02:26:34;8.27;;;6.25;;
10677;SDS011;5387;48.722;9.110;2023-06-22T02:29:03;11.52;;;6.72;;
10677;SDS011;5387;48.722;9.110;2023-06-22T02:31:30;8.23;;;6.22;;
10677;SDS011;5387;48.722;9.110;2023-06-22T02:33:57;11.05;;;6.35;;
10677;SDS011;5387;48.722;9.110;2023-06-22T02:36:26;10.80;;;6.22;;
10677;SDS011;5387;48.722;9.110;2023-06-22T02:38:55;8.00;;;6.15;;
10677;SDS011;5387;48.722;9.110;2023-06-22T02:41:24;8.45;;;6.40;;
10677;SDS011;5387;48.722;9.110;2023-06-22T02:43:50;8.57;;;5.97;;
10677;SDS011;5387;48.722;9.110;2023-06-22T02:46:17;10.35;;;7.63;;
10677;SDS011;5387;48.722;9.110;2023-06-22T02:48:44;13.02;;;7.72;;
10677;SDS011;5387;48.722;9.110;2023-06-22T02:51:11;11.02;;;7.90;;
10677;SDS011;5387;48.722;9.110;2023-06-22T02:53:39;8.75;;;7.10;;
10677;SDS011;5387;48.722;9.110;2023-06-22T02:56:09;8.38;;;7.15;;
10677;SDS011;5387;48.722;9.110;2023-06-22T02:58:37;10.80;;;7.00;;
10677;SDS011;5387;48.722;9.110;2023-06-22T03:01:04;8.98;;;6.32;;
10677;SDS011;5387;48.722;9.110;2023-06-22T03:03:31;8.95;;;7.35;;
10677;SDS011;5387;48.722;9.110;2023-06-22T03:05:58;11.55;;;7.38;;
10677;SDS011;5387;48.722;9.110;2023-06-22T03:08:26;14.25;;;7.93;;
10677;SDS011;5387;48.722;9.110;2023-06-22T03:10:55;14.20;;;8.80;;
10677;SDS011;5387;48.722;9.110;2023-06-22T03:13:22;12.95;;;6.88;;
10677;SDS011;5387;48.722;9.110;2023-06-22T03:15:49;10.40;;;6.82;;
10677;SDS011;5387;48.722;9.110;2023-06-22T03:18:15;9.10;;;7.28;;
10677;SDS011;5387;48.722;9.110;2023-06-22T03:20:42;12.63;;;8.05;;
10677;SDS011;5387;48.722;9.110;2023-06-22T03:23:09;10.82;;;8.07;;
10677;SDS011;5387;48.722;9.110;2023-06-22T03:25:36;9.77;;;7.43;;
10677;SDS011;5387;48.722;9.110;2023-06-22T03:28:04;12.45;;;8.85;;
10677;SDS011;5387;48.722;9.110;2023-06-22T03:30:31;11.27;;;7.28;;
10677;SDS011;5387;48.722;9.110;2023-06-22T03:32:57;9.80;;;7.40;;
10677;SDS011;5387;48.722;9.110;2023-06-22T03:35:24;12.43;;;8.38;;
10677;SDS011;5387;48.722;9.110;2023-06-22T03:37:51;9.77;;;7.47;;
10677;SDS011;5387;48.722;9.110;2023-06-22T03:40:18;11.05;;;7.50;;
10677;SDS011;5387;48.722;9.110;2023-06-22T03:42:45;15.98;;;8.13;;
10677;SDS011;5387;48.722;9.110;2023-06-22T03:45:13;11.05;;;8.85;;
10677;SDS011;5387;48.722;9.110;2023-06-22T03:47:40;11.57;;;7.15;;
10677;SDS011;5387;48.722;9.110;2023-06-22T03:50:07;12.32;;;7.70;;
10677;SDS011;5387;48.722;9.110;2023-06-22T03:52:34;10.88;;;7.25;;
10677;SDS011;5387;48.722;9.110;2023-06-22T03:55:01;9.85;;;7.35;;
10677;SDS011;5387;48.722;9.110;2023-06-22T03:57:28;10.95;;;7.03;;
10677;SDS011;5387;48.722;9.110;2023-06-22T03:59:55;9.60;;;7.63;;
10677;SDS011;5387;48.722;9.110;2023-06-22T04:02:24;13.75;;;8.77;;
10677;SDS011;5387;48.722;9.110;2023-06-22T04:04:51;9.80;;;7.47;;
10677;SDS011;5387;48.722;9.110;2023-06-22T04:07:18;11.82;;;7.85;;
10677;SDS011;5387;48.722;9.110;2023-06-22T04:09:44;9.95;;;6.88;;
10677;SDS011;5387;48.722;9.110;2023-06-22T04:12:11;8.70;;;7.15;;
10677;SDS011;5387;48.722;9.110;2023-06-22T04:14:38;10.93;;;7.85;;
10677;SDS011;5387;48.722;9.110;2023-06-22T04:17:05;13.30;;;8.13;;
10677;SDS011;5387;48.722;9.110;2023-06-22T04:19:33;9.82;;;8.20;;
10677;SDS011;5387;48.722;9.110;2023-06-22T04:22:00;11.60;;;7.82;;
10677;SDS011;5387;48.722;9.110;2023-06-22T04:24:27;11.35;;;8.02;;
10677;SDS011;5387;48.722;9.110;2023-06-22T04:26:53;12.00;;;8.27;;
10677;SDS011;5387;48.722;9.110;2023-06-22T04:29:21;12.93;;;8.00;;
10677;SDS011;5387;48.722;9.110;2023-06-22T04:31:53;13.75;;;7.68;;
10677;SDS011;5387;48.722;9.110;2023-06-22T04:34:22;15.23;;;8.02;;
10677;SDS011;5387;48.722;9.110;2023-06-22T04:36:52;8.65;;;7.05;;
10677;SDS011;5387;48.722;9.110;2023-06-22T04:39:19;8.88;;;7.35;;
10677;SDS011;5387;48.722;9.110;2023-06-22T04:41:46;9.73;;;7.40;;
10677;SDS011;5387;48.722;9.110;2023-06-22T04:44:13;10.98;;;7.97;;
10677;SDS011;5387;48.722;9.110;2023-06-22T04:46:48;11.65;;;7.55;;
10677;SDS011;5387;48.722;9.110;2023-06-22T04:49:19;10.85;;;7.53;;
10677;SDS011;5387;48.722;9.110;2023-06-22T04:51:47;11.40;;;7.93;;
10677;SDS011;5387;48.722;9.110;2023-06-22T04:54:18;13.23;;;9.75;;
10677;SDS011;5387;48.722;9.110;2023-06-22T04:56:44;9.77;;;7.22;;
10677;SDS011;5387;48.722;9.110;2023-06-22T04:59:11;10.45;;;7.82;;
10677;SDS011;5387;48.722;9.110;2023-06-22T05:01:39;12.18;;;7.78;;
10677;SDS011;5387;48.722;9.110;2023-06-22T05:04:05;9.75;;;6.75;;
10677;SDS011;5387;48.722;9.110;2023-06-22T05:06:32;12.70;;;7.85;;
10677;SDS011;5387;48.722;9.110;2023-06-22T05:08:59;11.90;;;7.55;;
10677;SDS011;5387;48.722;9.110;2023-06-22T05:11:29;10.65;;;7.47;;
10677;SDS011;5387;48.722;9.110;2023-06-22T05:13:55;10.07;;;7.70;;
10677;SDS011;5387;48.722;9.110;2023-06-22T05:16:22;12.85;;;6.97;;
10677;SDS011;5387;48.722;9.110;2023-06-22T05:18:50;12.65;;;7.78;;
10677;SDS011;5387;48.722;9.110;2023-06-22T05:21:19;9.43;;;6.88;;
10677;SDS011;5387;48.722;9.110;2023-06-22T05:23:48;9.35;;;7.15;;
10677;SDS011;5387;48.722;9.110;2023-06-22T05:26:15;10.40;;;7.63;;
10677;SDS011;5387;48.722;9.110;2023-06-22T05:28:43;8.90;;;6.95;;
10677;SDS011;5387;48.722;9.110;2023-06-22T05:31:11;9.52;;;7.07;;
10677;SDS011;5387;48.722;9.110;2023-06-22T05:33:38;8.65;;;6.70;;
10677;SDS011;5387;48.722;9.110;2023-06-22T05:36:05;12.35;;;6.25;;
10677;SDS011;5387;48.722;9.110;2023-06-22T05:38:32;11.93;;;6.97;;
10677;SDS011;5387;48.722;9.110;2023-06-22T05:40:59;9.75;;;6.30;;
10677;SDS011;5387;48.722;9.110;2023-06-22T05:43:25;5.90;;;5.25;;
10677;SDS011;5387;48.722;9.110;2023-06-22T05:45:53;12.68;;;5.30;;
10677;SDS011;5387;48.722;9.110;2023-06-22T05:48:20;11.35;;;5.28;;
10677;SDS011;5387;48.722;9.110;2023-06-22T05:50:47;12.32;;;4.68;;
10677;SDS011;5387;48.722;9.110;2023-06-22T05:53:14;8.65;;;4.47;;
10677;SDS011;5387;48.722;9.110;2023-06-22T05:55:41;5.97;;;4.53;;
10677;SDS011;5387;48.722;9.110;2023-06-22T05:58:08;12.32;;;4.90;;
10677;SDS011;5387;48.722;9.110;2023-06-22T06:00:35;13.38;;;5.10;;
10677;SDS011;5387;48.722;9.110;2023-06-22T06:03:03;7.32;;;4.45;;
10677;SDS011;5387;48.722;9.110;2023-06-22T06:05:30;7.80;;;4.65;;
10677;SDS011;5387;48.722;9.110;2023-06-22T06:07:58;5.75;;;4.30;;
10677;SDS011;5387;48.722;9.110;2023-06-22T06:10:25;13.07;;;5.13;;
10677;SDS011;5387;48.722;9.110;2023-06-22T06:12:52;8.60;;;4.75;;
10677;SDS011;5387;48.722;9.110;2023-06-22T06:15:19;11.48;;;4.47;;
10677;SDS011;5387;48.722;9.110;2023-06-22T06:17:46;12.05;;;4.38;;
10677;SDS011;5387;48.722;9.110;2023-06-22T06:20:14;6.25;;;4.30;;
10677;SDS011;5387;48.722;9.110;2023-06-22T06:22:42;9.32;;;4.75;;
10677;SDS011;5387;48.722;9.110;2023-06-22T06:25:09;8.15;;;4.60;;
10677;SDS011;5387;48.722;9.110;2023-06-22T06:27:40;9.73;;;4.20;;
10677;SDS011;5387;48.722;9.110;2023-06-22T06:30:08;5.03;;;3.83;;
10677;SDS011;5387;48.722;9.110;2023-06-22T06:32:35;6.43;;;4.45;;
10677;SDS011;5387;48.722;9.110;2023-06-22T06:35:03;6.93;;;4.85;;
10677;SDS011;5387;48.722;9.110;2023-06-22T06:37:32;7.72;;;4.45;;
10677;SDS011;5387;48.722;9.110;2023-06-22T06:40:01;7.82;;;3.70;;
10677;SDS011;5387;48.722;9.110;2023-06-22T06:42:30;5.85;;;4.03;;
10677;SDS011;5387;48.722;9.110;2023-06-22T06:44:57;5.97;;;4.88;;
10677;SDS011;5387;48.722;9.110;2023-06-22T06:47:24;6.47;;;4.60;;
10677;SDS011;5387;48.722;9.110;2023-06-22T06:49:51;6.13;;;4.55;;
10677;SDS011;5387;48.722;9.110;2023-06-22T06:52:17;6.38;;;4.07;;
10677;SDS011;5387;48.722;9.110;2023-06-22T06:54:46;5.75;;;4.13;;
10677;SDS011;5387;48.722;9.110;2023-06-22T06:57:13;5.97;;;4.53;;
10677;SDS011;5387;48.722;9.110;2023-06-22T06:59:40;5.43;;;4.18;;
10677;SDS011;5387;48.722;9.110;2023-06-22T07:02:07;9.23;;;4.28;;
10677;SDS011;5387;48.722;9.110;2023-06-22T07:04:34;5.57;;;4.25;;
10677;SDS011;5387;48.722;9.110;2023-06-22T07:07:01;9.23;;;4.72;;
10677;SDS011;5387;48.722;9.110;2023-06-22T07:09:29;7.25;;;4.07;;
10677;SDS011;5387;48.722;9.110;2023-06-22T07:11:57;9.25;;;4.25;;
10677;SDS011;5387;48.722;9.110;2023-06-22T07:14:23;7.13;;;3.97;;
10677;SDS011;5387;48.722;9.110;2023-06-22T07:16:50;12.30;;;3.85;;
10677;SDS011;5387;48.722;9.110;2023-06-22T07:19:23;6.43;;;3.75;;
10677;SDS011;5387;48.722;9.110;2023-06-22T07:21:51;7.50;;;3.75;;
10677;SDS011;5387;48.722;9.110;2023-06-22T07:24:18;7.93;;;3.92;;
10677;SDS011;5387;48.722;9.110;2023-06-22T07:26:46;5.03;;;3.88;;
10677;SDS011;5387;48.722;9.110;2023-06-22T07:29:14;8.70;;;4.05;;
10677;SDS011;5387;48.722;9.110;2023-06-22T07:31:41;10.55;;;5.20;;
10677;SDS011;5387;48.722;9.110;2023-06-22T07:34:08;6.03;;;3.85;;
10677;SDS011;5387;48.722;9.110;2023-06-22T07:36:35;7.80;;;3.75;;
10677;SDS011;5387;48.722;9.110;2023-06-22T07:39:02;5.28;;;3.65;;
10677;SDS011;5387;48.722;9.110;2023-06-22T07:41:29;8.60;;;4.10;;
10677;SDS011;5387;48.722;9.110;2023-06-22T07:43:56;6.85;;;3.38;;
10677;SDS011;5387;48.722;9.110;2023-06-22T07:46:24;6.07;;;4.10;;
10677;SDS011;5387;48.722;9.110;2023-06-22T07:48:51;9.48;;;4.50;;
10677;SDS011;5387;48.722;9.110;2023-06-22T07:51:17;5.88;;;4.20;;
10677;SDS011;5387;48.722;9.110;2023-06-22T07:53:44;5.97;;;3.70;;
10677;SDS011;5387;48.722;9.110;2023-06-22T07:56:11;7.70;;;4.22;;
10677;SDS011;5387;48.722;9.110;2023-06-22T07:58:38;8.93;;;3.88;;
10677;SDS011;5387;48.722;9.110;2023-06-22T08:01:05;8.77;;;4.20;;
10677;SDS011;5387;48.722;9.110;2023-06-22T08:03:33;5.72;;;4.18;;
10677;SDS011;5387;48.722;9.110;2023-06-22T08:06:00;10.95;;;4.10;;
10677;SDS011;5387;48.722;9.110;2023-06-22T08:08:27;10.32;;;3.80;;
10677;SDS011;5387;48.722;9.110;2023-06-22T08:10:53;8.02;;;4.38;;
10677;SDS011;5387;48.722;9.110;2023-06-22T08:13:20;10.63;;;4.22;;
10677;SDS011;5387;48.722;9.110;2023-06-22T08:15:47;11.07;;;4.50;;
10677;SDS011;5387;48.722;9.110;2023-06-22T08:18:14;7.38;;;3.60;;
10677;SDS011;5387;48.722;9.110;2023-06-22T08:20:42;6.57;;;4.07;;
10677;SDS011;5387;48.722;9.110;2023-06-22T08:23:09;9.25;;;4.72;;
10677;SDS011;5387;48.722;9.110;2023-06-22T08:25:36;7.60;;;4.15;;
10677;SDS011;5387;48.722;9.110;2023-06-22T08:28:03;10.02;;;4.22;;
10677;SDS011;5387;48.722;9.110;2023-06-22T08:30:30;11.02;;;4.63;;
10677;SDS011;5387;48.722;9.110;2023-06-22T08:32:57;10.57;;;4.45;;
10677;SDS011;5387;48.722;9.110;2023-06-22T08:35:24;8.45;;;4.15;;
10677;SDS011;5387;48.722;9.110;2023-06-22T08:37:52;7.68;;;4.13;;
10677;SDS011;5387;48.722;9.110;2023-06-22T08:40:22;9.93;;;4.18;;
10677;SDS011;5387;48.722;9.110;2023-06-22T08:42:49;10.43;;;5.10;;
10677;SDS011;5387;48.722;9.110;2023-06-22T08:45:16;7.43;;;3.97;;
10677;SDS011;5387;48.722;9.110;2023-06-22T08:47:43;8.50;;;4.40;;
10677;SDS011;5387;48.722;9.110;2023-06-22T08:50:10;8.15;;;4.70;;
10677;SDS011;5387;48.722;9.110;2023-06-22T08:52:38;6.90;;;4.60;;
10677;SDS011;5387;48.722;9.110;2023-06-22T08:55:09;10.23;;;5.10;;
10677;SDS011;5387;48.722;9.110;2023-06-22T08:57:36;6.82;;;4.32;;
10677;SDS011;5387;48.722;9.110;2023-06-22T09:00:04;11.20;;;4.65;;
10677;SDS011;5387;48.722;9.110;2023-06-22T09:02:40;6.90;;;4.13;;
10677;SDS011;5387;48.722;9.110;2023-06-22T09:05:07;8.63;;;4.35;;
10677;SDS011;5387;48.722;9.110;2023-06-22T09:07:35;5.68;;;4.35;;
10677;SDS011;5387;48.722;9.110;2023-06-22T09:10:01;10.13;;;4.22;;
10677;SDS011;5387;48.722;9.110;2023-06-22T09:12:31;7.63;;;4.00;;
10677;SDS011;5387;48.722;9.110;2023-06-22T09:14:59;8.88;;;4.47;;
10677;SDS011;5387;48.722;9.110;2023-06-22T09:17:27;6.93;;;4.78;;
10677;SDS011;5387;48.722;9.110;2023-06-22T09:19:54;7.63;;;4.70;;
10677;SDS011;5387;48.722;9.110;2023-06-22T09:22:21;8.10;;;4.70;;
10677;SDS011;5387;48.722;9.110;2023-06-22T09:24:48;9.55;;;4.47;;
10677;SDS011;5387;48.722;9.110;2023-06-22T09:27:15;7.80;;;4.75;;
10677;SDS011;5387;48.722;9.110;2023-06-22T09:29:43;10.70;;;4.95;;
10677;SDS011;5387;48.722;9.110;2023-06-22T09:32:10;8.77;;;4.25;;
10677;SDS011;5387;48.722;9.110;2023-06-22T09:34:37;9.70;;;4.75;;
10677;SDS011;5387;48.722;9.110;2023-06-22T09:37:03;12.45;;;5.03;;
10677;SDS011;5387;48.722;9.110;2023-06-22T09:39:31;10.07;;;4.55;;
10677;SDS011;5387;48.722;9.110;2023-06-22T09:41:58;10.32;;;5.95;;
10677;SDS011;5387;48.722;9.110;2023-06-22T09:44:25;6.53;;;4.25;;
10677;SDS011;5387;48.722;9.110;2023-06-22T09:46:53;7.93;;;4.65;;
10677;SDS011;5387;48.722;9.110;2023-06-22T09:49:20;8.50;;;5.07;;
10677;SDS011;5387;48.722;9.110;2023-06-22T09:51:47;11.73;;;4.93;;
10677;SDS011;5387;48.722;9.110;2023-06-22T09:54:14;9.10;;;4.68;;
10677;SDS011;5387;48.722;9.110;2023-06-22T09:56:41;6.20;;;4.50;;
10677;SDS011;5387;48.722;9.110;2023-06-22T09:59:08;7.43;;;4.68;;
10677;SDS011;5387;48.722;9.110;2023-06-22T10:01:35;11.70;;;4.82;;
10677;SDS011;5387;48.722;9.110;2023-06-22T10:04:03;14.18;;;4.80;;
10677;SDS011;5387;48.722;9.110;2023-06-22T10:06:30;10.10;;;5.10;;
10677;SDS011;5387;48.722;9.110;2023-06-22T10:08:57;8.30;;;4.90;;
10677;SDS011;5387;48.722;9.110;2023-06-22T10:11:23;10.02;;;4.45;;
10677;SDS011;5387;48.722;9.110;2023-06-22T10:13:54;8.02;;;4.20;;
10677;SDS011;5387;48.722;9.110;2023-06-22T10:16:21;6.60;;;4.30;;
10677;SDS011;5387;48.722;9.110;2023-06-22T10:18:48;9.15;;;4.55;;
10677;SDS011;5387;48.722;9.110;2023-06-22T10:21:16;10.60;;;4.43;;
10677;SDS011;5387;48.722;9.110;2023-06-22T10:23:42;9.57;;;5.07;;
10677;SDS011;5387;48.722;9.110;2023-06-22T10:26:09;9.30;;;5.43;;
10677;SDS011;5387;48.722;9.110;2023-06-22T10:28:36;11.13;;;5.28;;
10677;SDS011;5387;48.722;9.110;2023-06-22T10:31:03;9.27;;;4.63;;
10677;SDS011;5387;48.722;9.110;2023-06-22T10:33:29;11.10;;;4.70;;
10677;SDS011;5387;48.722;9.110;2023-06-22T10:35:56;9.82;;;5.15;;
10677;SDS011;5387;48.722;9.110;2023-06-22T10:38:24;6.57;;;4.45;;
10677;SDS011;5387;48.722;9.110;2023-06-22T10:40:51;13.75;;;4.95;;
10677;SDS011;5387;48.722;9.110;2023-06-22T10:43:18;9.50;;;4.28;;
10677;SDS011;5387;48.722;9.110;2023-06-22T10:45:45;7.65;;;5.15;;
10677;SDS011;5387;48.722;9.110;2023-06-22T10:48:11;7.78;;;4.53;;
10677;SDS011;5387;48.722;9.110;2023-06-22T10:50:38;8.23;;;4.60;;
10677;SDS011;5387;48.722;9.110;2023-06-22T10:53:05;7.82;;;4.82;;
10677;SDS011;5387;48.722;9.110;2023-06-22T10:55:33;10.52;;;4.95;;
10677;SDS011;5387;48.722;9.110;2023-06-22T10:58:00;8.38;;;4.65;;
10677;SDS011;5387;48.722;9.110;2023-06-22T11:00:26;9.02;;;5.10;;
10677;SDS011;5387;48.722;9.110;2023-06-22T11:02:53;7.47;;;5.25;;
10677;SDS011;5387;48.722;9.110;2023-06-22T11:05:20;9.38;;;4.88;;
10677;SDS011;5387;48.722;9.110;2023-06-22T11:07:47;5.78;;;4.53;;
10677;SDS011;5387;48.722;9.110;2023-06-22T11:10:14;9.57;;;5.22;;
10677;SDS011;5387;48.722;9.110;2023-06-22T11:12:42;8.20;;;4.65;;
10677;SDS011;5387;48.722;9.110;2023-06-22T11:15:09;11.52;;;5.28;;
10677;SDS011;5387;48.722;9.110;2023-06-22T11:17:36;14.07;;;5.20;;
10677;SDS011;5387;48.722;9.110;2023-06-22T11:20:03;7.78;;;4.28;;
10677;SDS011;5387;48.722;9.110;2023-06-22T11:22:36;12.95;;;5.28;;
10677;SDS011;5387;48.722;9.110;2023-06-22T11:25:04;12.07;;;6.43;;
10677;SDS011;5387;48.722;9.110;2023-06-22T11:27:32;13.52;;;4.85;;
10677;SDS011;5387;48.722;9.110;2023-06-22T11:30:00;9.13;;;5.00;;
10677;SDS011;5387;48.722;9.110;2023-06-22T11:32:27;10.95;;;5.30;;
10677;SDS011;5387;48.722;9.110;2023-06-22T11:34:54;11.57;;;4.47;;
10677;SDS011;5387;48.722;9.110;2023-06-22T11:37:21;8.85;;;4.95;;
10677;SDS011;5387;48.722;9.110;2023-06-22T11:39:47;11.40;;;4.78;;
10677;SDS011;5387;48.722;9.110;2023-06-22T11:42:14;8.13;;;4.75;;
10677;SDS011;5387;48.722;9.110;2023-06-22T11:44:41;14.65;;;5.38;;
10677;SDS011;5387;48.722;9.110;2023-06-22T11:47:09;15.88;;;4.97;;
10677;SDS011;5387;48.722;9.110;2023-06-22T11:49:36;15.02;;;5.03;;
10677;SDS011;5387;48.722;9.110;2023-06-22T11:52:03;12.82;;;5.95;;
10677;SDS011;5387;48.722;9.110;2023-06-22T11:54:30;16.25;;;5.63;;
10677;SDS011;5387;48.722;9.110;2023-06-22T11:56:57;6.85;;;4.78;;
10677;SDS011;5387;48.722;9.110;2023-06-22T11:59:24;8.02;;;5.68;;
10677;SDS011;5387;48.722;9.110;2023-06-22T12:01:50;13.43;;;5.45;;
10677;SDS011;5387;48.722;9.110;2023-06-22T12:04:19;9.70;;;5.60;;
10677;SDS011;5387;48.722;9.110;2023-06-22T12:06:45;8.77;;;4.88;;
10677;SDS011;5387;48.722;9.110;2023-06-22T12:09:13;13.35;;;4.97;;
10677;SDS011;5387;48.722;9.110;2023-06-22T12:11:40;8.60;;;4.95;;
10677;SDS011;5387;48.722;9.110;2023-06-22T12:14:07;9.77;;;4.70;;
10677;SDS011;5387;48.722;9.110;2023-06-22T12:16:33;9.23;;;4.70;;
10677;SDS011;5387;48.722;9.110;2023-06-22T12:19:00;8.25;;;4.90;;
10677;SDS011;5387;48.722;9.110;2023-06-22T12:21:28;12.60;;;4.72;;
10677;SDS011;5387;48.722;9.110;2023-06-22T12:23:55;12.07;;;5.72;;
10677;SDS011;5387;48.722;9.110;2023-06-22T12:26:22;12.88;;;5.80;;
10677;SDS011;5387;48.722;9.110;2023-06-22T12:28:49;7.32;;;4.82;;
10677;SDS011;5387;48.722;9.110;2023-06-22T12:31:16;14.70;;;5.93;;
10677;SDS011;5387;48.722;9.110;2023-06-22T12:33:43;10.15;;;4.78;;
10677;SDS011;5387;48.722;9.110;2023-06-22T12:36:10;13.10;;;4.95;;
10677;SDS011;5387;48.722;9.110;2023-06-22T12:38:38;12.07;;;5.80;;
10677;SDS011;5387;48.722;9.110;2023-06-22T12:41:05;15.65;;;5.13;;
10677;SDS011;5387;48.722;9.110;2023-06-22T12:43:32;10.73;;;5.28;;
10677;SDS011;5387;48.722;9.110;2023-06-22T12:45:58;15.98;;;6.10;;
10677;SDS011;5387;48.722;9.110;2023-06-22T12:48:25;9.60;;;5.22;;
10677;SDS011;5387;48.722;9.110;2023-06-22T12:50:53;10.63;;;5.65;;
10677;SDS011;5387;48.722;9.110;2023-06-22T12:53:20;8.52;;;5.57;;
10677;SDS011;5387;48.722;9.110;2023-06-22T12:55:49;7.75;;;5.40;;
10677;SDS011;5387;48.722;9.110;2023-06-22T12:58:15;12.02;;;4.82;;
10677;SDS011;5387;48.722;9.110;2023-06-22T13:00:42;13.48;;;5.28;;
10677;SDS011;5387;48.722;9.110;2023-06-22T13:03:09;13.07;;;4.90;;
10677;SDS011;5387;48.722;9.110;2023-06-22T13:05:36;11.32;;;5.70;;
10677;SDS011;5387;48.722;9.110;2023-06-22T13:08:03;9.00;;;4.85;;
10677;SDS011;5387;48.722;9.110;2023-06-22T13:10:30;13.50;;;5.22;;
10677;SDS011;5387;48.722;9.110;2023-06-22T13:12:58;17.73;;;5.15;;
10677;SDS011;5387;48.722;9.110;2023-06-22T13:15:26;6.10;;;4.57;;
10677;SDS011;5387;48.722;9.110;2023-06-22T13:17:53;20.60;;;5.60;;
10677;SDS011;5387;48.722;9.110;2023-06-22T13:20:21;14.82;;;5.75;;
10677;SDS011;5387;48.722;9.110;2023-06-22T13:22:48;8.32;;;5.60;;
10677;SDS011;5387;48.722;9.110;2023-06-22T13:25:14;11.63;;;5.10;;
10677;SDS011;5387;48.722;9.110;2023-06-22T13:27:44;7.68;;;5.13;;
10677;SDS011;5387;48.722;9.110;2023-06-22T13:30:12;11.20;;;4.60;;
10677;SDS011;5387;48.722;9.110;2023-06-22T13:32:39;10.93;;;5.65;;
10677;SDS011;5387;48.722;9.110;2023-06-22T13:35:07;12.80;;;4.97;;
10677;SDS011;5387;48.722;9.110;2023-06-22T13:37:35;12.57;;;5.53;;
10677;SDS011;5387;48.722;9.110;2023-06-22T13:40:02;11.07;;;4.53;;
10677;SDS011;5387;48.722;9.110;2023-06-22T13:42:31;9.48;;;4.35;;
10677;SDS011;5387;48.722;9.110;2023-06-22T13:44:58;13.02;;;4.57;;
10677;SDS011;5387;48.722;9.110;2023-06-22T13:47:26;10.95;;;4.55;;
10677;SDS011;5387;48.722;9.110;2023-06-22T13:49:53;8.75;;;4.65;;
10677;SDS011;5387;48.722;9.110;2023-06-22T13:52:20;14.00;;;4.22;;
10677;SDS011;5387;48.722;9.110;2023-06-22T13:54:47;12.70;;;5.07;;
10677;SDS011;5387;48.722;9.110;2023-06-22T13:57:14;8.00;;;4.50;;
10677;SDS011;5387;48.722;9.110;2023-06-22T13:59:40;8.73;;;5.20;;
10677;SDS011;5387;48.722;9.110;2023-06-22T14:02:07;9.07;;;4.50;;
10677;SDS011;5387;48.722;9.110;2023-06-22T14:04:36;7.00;;;4.50;;
10677;SDS011;5387;48.722;9.110;2023-06-22T14:07:02;13.15;;;5.30;;
10677;SDS011;5387;48.722;9.110;2023-06-22T14:09:29;13.02;;;4.53;;
10677;SDS011;5387;48.722;9.110;2023-06-22T14:11:56;8.30;;;4.28;;
10677;SDS011;5387;48.722;9.110;2023-06-22T14:14:23;13.10;;;4.40;;
10677;SDS011;5387;48.722;9.110;2023-06-22T14:16:50;9.15;;;5.05;;
10677;SDS011;5387;48.722;9.110;2023-06-22T14:19:17;13.93;;;5.03;;
10677;SDS011;5387;48.722;9.110;2023-06-22T14:21:45;7.35;;;4.88;;
10677;SDS011;5387;48.722;9.110;2023-06-22T14:24:12;14.60;;;4.80;;
10677;SDS011;5387;48.722;9.110;2023-06-22T14:26:39;8.13;;;4.05;;
10677;SDS011;5387;48.722;9.110;2023-06-22T14:29:06;12.05;;;4.80;;
10677;SDS011;5387;48.722;9.110;2023-06-22T14:31:33;11.35;;;3.78;;
10677;SDS011;5387;48.722;9.110;2023-06-22T14:34:00;9.57;;;4.45;;
10677;SDS011;5387;48.722;9.110;2023-06-22T14:36:28;11.68;;;4.00;;
10677;SDS011;5387;48.722;9.110;2023-06-22T14:38:56;9.32;;;4.18;;
10677;SDS011;5387;48.722;9.110;2023-06-22T14:41:23;10.02;;;5.15;;
10677;SDS011;5387;48.722;9.110;2023-06-22T14:43:50;10.40;;;4.13;;
10677;SDS011;5387;48.722;9.110;2023-06-22T14:46:17;13.05;;;3.40;;
10677;SDS011;5387;48.722;9.110;2023-06-22T14:48:45;10.85;;;2.90;;
10677;SDS011;5387;48.722;9.110;2023-06-22T14:51:12;8.20;;;3.50;;
10677;SDS011;5387;48.722;9.110;2023-06-22T14:53:38;6.45;;;3.85;;
10677;SDS011;5387;48.722;9.110;2023-06-22T14:56:07;8.35;;;3.55;;